createdAt,value
2019-03-02T00:02:25.436Z,8.60
2019-03-02T00:04:56.051Z,8.60
2019-03-02T00:07:27.405Z,8.70
2019-03-02T00:09:57.866Z,8.70
2019-03-02T00:12:28.769Z,8.80
2019-03-02T00:15:01.471Z,8.80
2019-03-02T00:17:31.946Z,8.80
2019-03-02T00:20:02.405Z,8.70
2019-03-02T00:22:32.860Z,8.80
2019-03-02T00:25:03.296Z,8.90
2019-03-02T00:27:33.773Z,8.90
2019-03-02T00:30:04.433Z,8.80
2019-03-02T00:32:34.859Z,8.90
2019-03-02T00:35:07.179Z,8.90
2019-03-02T00:37:37.919Z,8.90
2019-03-02T00:40:08.675Z,9.00
2019-03-02T00:42:39.095Z,9.00
2019-03-02T00:45:10.616Z,8.90
2019-03-02T00:47:41.732Z,9.00
2019-03-02T00:50:12.596Z,9.00
2019-03-02T00:52:43.099Z,9.00
2019-03-02T00:55:13.609Z,9.10
2019-03-02T00:57:44.044Z,9.10
2019-03-02T01:00:16.236Z,9.00
2019-03-02T01:02:46.709Z,9.00
2019-03-02T01:05:17.392Z,9.10
2019-03-02T01:07:47.782Z,9.10
2019-03-02T01:10:19.053Z,9.00
2019-03-02T01:12:50.597Z,8.90
2019-03-02T01:15:21.036Z,8.90
2019-03-02T01:17:52.094Z,8.90
2019-03-02T01:20:24.839Z,8.90
2019-03-02T01:22:54.634Z,9.00
2019-03-02T01:25:25.092Z,9.00
2019-03-02T01:27:55.546Z,9.00
2019-03-02T01:30:26.599Z,9.10
2019-03-02T01:32:58.423Z,9.10
2019-03-02T01:35:28.867Z,9.10
2019-03-02T01:37:59.316Z,8.90
2019-03-02T01:40:29.838Z,8.90
2019-03-02T01:43:01.939Z,9.00
2019-03-02T01:45:32.502Z,9.00
2019-03-02T01:48:02.952Z,9.00
2019-03-02T01:50:33.362Z,9.00
2019-03-02T01:53:06.552Z,9.00
2019-03-02T01:55:35.949Z,8.70
2019-03-02T01:58:06.382Z,8.60
2019-03-02T02:00:36.790Z,8.60
2019-03-02T02:03:08.563Z,8.70
2019-03-02T02:05:39.490Z,8.80
2019-03-02T02:08:09.911Z,8.90
2019-03-02T02:10:43.467Z,8.90
2019-03-02T02:13:12.538Z,9.00
2019-03-02T02:15:42.908Z,9.00
2019-03-02T02:18:13.334Z,9.00
2019-03-02T02:20:46.918Z,9.10
2019-03-02T02:23:15.880Z,9.00
2019-03-02T02:25:46.319Z,9.00
2019-03-02T02:28:16.749Z,9.00
2019-03-02T02:30:47.197Z,8.90
2019-03-02T02:33:17.611Z,9.00
2019-03-02T02:35:47.990Z,9.00
2019-03-02T02:38:18.449Z,9.10
2019-03-02T02:40:48.910Z,9.00
2019-03-02T02:43:22.127Z,9.00
2019-03-02T02:45:53.692Z,8.90
2019-03-02T02:48:26.303Z,8.90
2019-03-02T02:50:55.779Z,8.80
2019-03-02T02:53:26.242Z,8.90
2019-03-02T02:55:56.659Z,8.80
2019-03-02T02:58:27.102Z,8.80
2019-03-02T03:00:57.530Z,8.80
2019-03-02T03:03:27.945Z,8.80
2019-03-02T03:05:58.479Z,8.80
2019-03-02T03:08:45.495Z,8.70
2019-03-02T03:11:16.508Z,8.70
2019-03-02T03:13:46.991Z,8.70
2019-03-02T03:16:18.050Z,8.70
2019-03-02T03:18:52.161Z,8.80
2019-03-02T03:21:26.888Z,8.80
2019-03-02T03:23:54.137Z,8.90
2019-03-02T03:26:24.732Z,9.00
2019-03-02T03:28:55.273Z,8.90
2019-03-02T03:31:26.840Z,8.90
2019-03-02T03:33:57.901Z,8.90
2019-03-02T03:36:30.045Z,8.90
2019-03-02T03:39:02.752Z,8.90
2019-03-02T03:41:32.609Z,8.90
2019-03-02T03:44:03.034Z,8.90
2019-03-02T03:46:33.437Z,8.90
2019-03-02T03:49:03.869Z,8.90
2019-03-02T03:51:34.278Z,9.00
2019-03-02T03:54:06.767Z,8.90
2019-03-02T03:56:37.780Z,8.90
2019-03-02T03:59:09.029Z,8.90
2019-03-02T04:01:39.445Z,8.90
2019-03-02T04:04:10.151Z,8.90
2019-03-02T04:06:40.578Z,8.90
2019-03-02T04:09:11.124Z,8.90
2019-03-02T04:11:42.018Z,8.90
2019-03-02T04:14:14.007Z,8.90
2019-03-02T04:16:44.408Z,9.00
2019-03-02T04:19:23.372Z,9.00
2019-03-02T04:21:53.815Z,9.00
2019-03-02T04:24:24.249Z,9.10
2019-03-02T04:26:54.650Z,9.10
2019-03-02T04:29:25.046Z,9.10
2019-03-02T04:31:55.500Z,9.10
2019-03-02T04:34:25.932Z,9.10
2019-03-02T04:36:56.347Z,9.10
2019-03-02T04:39:26.759Z,9.10
2019-03-02T04:41:57.300Z,9.10
2019-03-02T04:44:29.613Z,9.10
2019-03-02T04:46:59.903Z,9.00
2019-03-02T04:49:30.348Z,9.10
2019-03-02T04:52:00.749Z,9.10
2019-03-02T04:54:31.175Z,9.10
2019-03-02T04:57:01.643Z,9.10
2019-03-02T04:59:32.074Z,9.10
2019-03-02T05:02:02.490Z,9.10
2019-03-02T05:04:33.170Z,9.10
2019-03-02T05:07:03.597Z,9.10
2019-03-02T05:09:34.004Z,9.10
2019-03-02T05:12:04.396Z,9.10
2019-03-02T05:14:36.690Z,9.10
2019-03-02T05:17:07.587Z,9.10
2019-03-02T05:19:38.893Z,9.10
2019-03-02T05:22:09.345Z,9.10
2019-03-02T05:24:40.608Z,9.10
2019-03-02T05:27:12.168Z,9.10
2019-03-02T05:29:42.585Z,9.00
2019-03-02T05:32:16.083Z,9.10
2019-03-02T05:34:45.179Z,9.10
2019-03-02T05:37:15.828Z,9.10
2019-03-02T05:39:46.240Z,9.10
2019-03-02T05:42:16.689Z,9.10
2019-03-02T05:44:47.138Z,9.10
2019-03-02T05:47:17.531Z,9.10
2019-03-02T05:49:50.815Z,9.10
2019-03-02T05:52:20.077Z,9.10
2019-03-02T05:54:50.960Z,9.10
2019-03-02T05:57:21.417Z,9.10
2019-03-02T05:59:51.810Z,9.00
2019-03-02T06:02:22.250Z,9.10
2019-03-02T06:04:53.618Z,8.90
2019-03-02T06:07:24.846Z,8.70
2019-03-02T06:09:55.294Z,8.80
2019-03-02T06:12:25.732Z,8.80
2019-03-02T06:14:56.137Z,8.90
2019-03-02T06:17:29.798Z,8.80
2019-03-02T06:19:59.342Z,8.90
2019-03-02T06:22:30.530Z,8.90
2019-03-02T06:25:00.980Z,8.90
2019-03-02T06:27:31.513Z,9.00
2019-03-02T06:30:04.879Z,9.10
2019-03-02T06:32:34.158Z,9.00
2019-03-02T06:35:04.829Z,9.10
2019-03-02T06:37:35.258Z,9.10
2019-03-02T06:40:06.317Z,9.10
2019-03-02T06:42:36.741Z,9.10
2019-03-02T06:45:10.346Z,9.10
2019-03-02T06:47:40.812Z,9.10
2019-03-02T06:50:12.977Z,9.00
2019-03-02T06:52:43.500Z,9.00
2019-03-02T06:55:14.233Z,9.00
2019-03-02T06:57:49.933Z,9.10
2019-03-02T07:00:19.319Z,9.10
2019-03-02T07:02:49.757Z,9.10
2019-03-02T07:05:20.280Z,9.10
2019-03-02T07:07:53.750Z,9.10
2019-03-02T07:10:23.549Z,9.10
2019-03-02T07:12:56.413Z,9.10
2019-03-02T07:15:26.819Z,9.10
2019-03-02T07:18:06.506Z,9.20
2019-03-02T07:20:39.888Z,9.20
2019-03-02T07:23:10.293Z,9.20
2019-03-02T07:25:44.120Z,9.30
2019-03-02T07:28:14.244Z,9.10
2019-03-02T07:30:44.695Z,9.20
2019-03-02T07:33:15.148Z,9.20
2019-03-02T07:35:45.570Z,9.30
2019-03-02T07:38:19.943Z,9.40
2019-03-02T07:40:50.064Z,9.40
2019-03-02T07:43:20.507Z,9.50
2019-03-02T07:45:50.928Z,9.60
2019-03-02T07:48:21.587Z,9.60
2019-03-02T07:50:52.017Z,9.50
2019-03-02T07:53:24.990Z,9.60
2019-03-02T07:55:57.419Z,9.60
2019-03-02T07:58:29.848Z,9.60
2019-03-02T08:01:00.719Z,9.60
2019-03-02T08:03:31.124Z,9.50
2019-03-02T08:06:01.589Z,9.40
2019-03-02T08:08:34.325Z,9.30
2019-03-02T08:11:04.898Z,9.40
2019-03-02T08:13:36.460Z,9.30
2019-03-02T08:16:07.617Z,9.40
2019-03-02T08:18:38.268Z,9.50
2019-03-02T08:21:08.816Z,9.50
2019-03-02T08:23:39.365Z,9.60
2019-03-02T08:26:09.818Z,9.80
2019-03-02T08:28:42.043Z,9.80
2019-03-02T08:31:13.303Z,9.90
2019-03-02T08:33:46.122Z,10.00
2019-03-02T08:36:16.955Z,10.00
2019-03-02T08:38:48.519Z,10.10
2019-03-02T08:41:19.070Z,10.10
2019-03-02T08:43:49.537Z,10.20
2019-03-02T08:46:20.263Z,9.90
2019-03-02T08:48:51.080Z,9.80
2019-03-02T08:51:21.758Z,9.80
2019-03-02T08:53:52.370Z,9.90
2019-03-02T08:56:22.837Z,10.00
2019-03-02T08:58:53.314Z,9.80
2019-03-02T09:01:26.846Z,9.80
2019-03-02T09:03:57.427Z,9.80
2019-03-02T09:06:30.932Z,9.90
2019-03-02T09:09:00.716Z,10.00
2019-03-02T09:11:31.618Z,10.00
2019-03-02T09:14:02.063Z,10.10
2019-03-02T09:16:32.956Z,10.10
2019-03-02T09:19:03.527Z,10.10
2019-03-02T09:21:34.006Z,9.90
2019-03-02T09:24:04.727Z,9.90
2019-03-02T09:26:35.317Z,10.10
2019-03-02T09:29:05.858Z,10.30
2019-03-02T09:31:39.773Z,10.30
2019-03-02T09:34:10.743Z,10.40
2019-03-02T09:36:41.149Z,10.40
2019-03-02T09:39:11.960Z,10.40
2019-03-02T09:41:44.889Z,10.40
2019-03-02T09:44:15.161Z,10.30
2019-03-02T09:46:47.382Z,10.40
2019-03-02T09:49:18.521Z,10.30
2019-03-02T09:51:52.337Z,10.30
2019-03-02T09:54:23.323Z,10.30
2019-03-02T09:56:54.346Z,10.30
2019-03-02T09:59:25.336Z,10.40
2019-03-02T10:01:55.922Z,10.40
2019-03-02T10:04:26.635Z,10.40
2019-03-02T10:06:57.958Z,10.30
2019-03-02T10:09:31.444Z,10.30
2019-03-02T10:12:03.266Z,10.40
2019-03-02T10:14:35.160Z,10.40
2019-03-02T10:17:06.714Z,10.60
2019-03-02T10:19:37.322Z,10.60
2019-03-02T10:22:08.241Z,10.70
2019-03-02T10:24:39.786Z,10.90
2019-03-02T10:27:11.176Z,10.90
2019-03-02T10:29:44.360Z,10.90
2019-03-02T10:32:13.863Z,11.20
2019-03-02T10:34:46.018Z,11.50
2019-03-02T10:37:17.336Z,11.70
2019-03-02T10:39:47.835Z,12.00
2019-03-02T10:42:18.319Z,12.20
2019-03-02T10:44:49.313Z,12.60
2019-03-02T10:47:19.761Z,12.60
2019-03-02T10:49:50.634Z,12.50
2019-03-02T10:52:21.451Z,12.40
2019-03-02T10:54:52.043Z,12.30
2019-03-02T10:57:22.543Z,12.30
2019-03-02T10:59:53.284Z,12.40
2019-03-02T11:02:25.782Z,12.50
2019-03-02T11:05:08.317Z,12.60
2019-03-02T11:07:48.803Z,12.90
2019-03-02T11:10:41.630Z,12.90
2019-03-02T11:13:40.302Z,13.10
2019-03-02T11:16:22.815Z,13.30
2019-03-02T11:19:01.249Z,13.40
2019-03-02T11:21:43.398Z,13.30
2019-03-02T11:24:22.809Z,13.30
2019-03-02T11:27:01.420Z,13.30
2019-03-02T11:29:59.158Z,13.10
2019-03-02T11:32:47.639Z,13.10
2019-03-02T11:35:27.436Z,13.00
2019-03-02T11:38:12.095Z,12.80
2019-03-02T11:40:49.500Z,12.70
2019-03-02T11:43:37.516Z,12.80
2019-03-02T11:46:24.256Z,12.70
2019-03-02T11:49:14.305Z,12.80
2019-03-02T11:51:54.270Z,12.70
2019-03-02T11:54:33.426Z,12.80
2019-03-02T11:57:25.506Z,13.00
2019-03-02T12:00:21.407Z,12.80
2019-03-02T12:03:21.594Z,12.40
2019-03-02T12:06:14.029Z,12.20
2019-03-02T12:08:54.832Z,12.00
2019-03-02T12:11:48.556Z,11.90
2019-03-02T12:14:42.959Z,11.80
2019-03-02T12:17:41.007Z,11.70
2019-03-02T12:20:32.806Z,11.60
2019-03-02T12:23:19.662Z,11.50
2019-03-02T12:25:59.366Z,11.60
2019-03-02T12:29:00.831Z,11.70
2019-03-02T12:31:38.082Z,11.80
2019-03-02T12:34:31.006Z,12.00
2019-03-02T12:37:17.414Z,12.30
2019-03-02T12:40:23.292Z,12.60
2019-03-02T12:43:22.967Z,12.80
2019-03-02T12:46:05.128Z,12.80
2019-03-02T12:48:54.645Z,12.90
2019-03-02T12:51:43.124Z,12.90
2019-03-02T12:54:25.574Z,13.50
2019-03-02T12:57:22.408Z,14.50
2019-03-02T13:00:15.654Z,15.30
2019-03-02T13:03:14.281Z,15.50
2019-03-02T13:05:48.628Z,15.40
2019-03-02T13:08:32.197Z,15.00
2019-03-02T13:11:07.923Z,15.00
2019-03-02T13:13:56.626Z,14.90
2019-03-02T13:16:46.348Z,14.60
2019-03-02T13:19:34.197Z,14.50
2019-03-02T13:22:29.548Z,14.30
2019-03-02T13:25:20.977Z,14.20
2019-03-02T13:28:09.091Z,14.20
2019-03-02T13:30:53.411Z,14.00
2019-03-02T13:33:42.535Z,14.10
2019-03-02T13:36:27.957Z,14.10
2019-03-02T13:39:26.616Z,14.10
2019-03-02T13:42:15.671Z,14.00
2019-03-02T13:45:03.865Z,14.20
2019-03-02T13:47:48.810Z,14.30
2019-03-02T13:50:35.950Z,14.20
2019-03-02T13:53:19.942Z,14.10
2019-03-02T13:55:56.455Z,14.00
2019-03-02T13:58:39.699Z,13.90
2019-03-02T14:01:35.382Z,14.00
2019-03-02T14:04:20.018Z,13.90
2019-03-02T14:07:10.400Z,13.70
2019-03-02T14:09:55.456Z,13.60
2019-03-02T14:12:50.801Z,13.50
2019-03-02T14:15:30.100Z,13.60
2019-03-02T14:18:18.329Z,13.60
2019-03-02T14:21:09.142Z,13.70
2019-03-02T14:24:07.681Z,13.80
2019-03-02T14:27:02.141Z,14.00
2019-03-02T14:29:57.782Z,14.20
2019-03-02T14:32:35.344Z,14.30
2019-03-02T14:35:31.362Z,14.40
2019-03-02T14:38:32.865Z,14.30
2019-03-02T14:41:11.122Z,14.10
2019-03-02T14:44:12.679Z,13.90
2019-03-02T14:47:06.012Z,13.80
2019-03-02T14:50:10.743Z,13.60
2019-03-02T14:52:52.092Z,13.60
2019-03-02T14:55:59.976Z,13.50
2019-03-02T14:58:52.224Z,13.50
2019-03-02T15:01:41.360Z,13.50
2019-03-02T15:04:46.086Z,13.50
2019-03-02T15:07:38.384Z,13.60
2019-03-02T15:10:29.108Z,13.70
2019-03-02T15:13:19.644Z,13.50
2019-03-02T15:16:16.400Z,13.40
2019-03-02T15:19:08.936Z,13.50
2019-03-02T15:22:20.288Z,13.50
2019-03-02T15:24:57.428Z,13.40
2019-03-02T15:27:33.694Z,13.30
2019-03-02T15:30:23.181Z,13.20
2019-03-02T15:33:16.929Z,13.20
2019-03-02T15:35:58.425Z,13.20
2019-03-02T15:38:39.987Z,13.20
2019-03-02T15:41:26.166Z,13.20
2019-03-02T15:44:22.402Z,13.30
2019-03-02T15:47:13.746Z,13.30
2019-03-02T15:49:55.825Z,13.30
2019-03-02T15:52:35.089Z,13.30
2019-03-02T15:55:28.205Z,13.40
2019-03-02T15:58:29.751Z,13.20
2019-03-02T16:01:23.139Z,13.20
2019-03-02T16:04:31.882Z,13.10
2019-03-02T16:07:23.844Z,13.10
2019-03-02T16:10:28.789Z,13.10
2019-03-02T16:13:20.550Z,13.20
2019-03-02T16:16:04.701Z,13.20
2019-03-02T16:19:06.458Z,13.30
2019-03-02T16:21:57.155Z,13.30
2019-03-02T16:25:04.933Z,13.20
2019-03-02T16:27:49.821Z,13.00
2019-03-02T16:30:44.920Z,13.00
2019-03-02T16:33:49.638Z,12.90
2019-03-02T16:36:40.122Z,12.70
2019-03-02T16:39:30.105Z,12.70
2019-03-02T16:42:25.571Z,12.60
2019-03-02T16:45:21.084Z,12.50
2019-03-02T16:48:24.975Z,12.40
2019-03-02T16:51:22.346Z,12.30
2019-03-02T16:54:11.803Z,12.30
2019-03-02T16:56:53.927Z,12.20
2019-03-02T16:59:41.979Z,12.20
2019-03-02T17:02:23.431Z,12.10
2019-03-02T17:05:31.843Z,12.20
2019-03-02T17:08:22.180Z,12.10
2019-03-02T17:11:01.156Z,12.00
2019-03-02T17:13:53.506Z,11.90
2019-03-02T17:16:39.701Z,11.90
2019-03-02T17:19:44.190Z,11.80
2019-03-02T17:22:28.889Z,11.90
2019-03-02T17:25:18.684Z,11.80
2019-03-02T17:28:02.935Z,11.80
2019-03-02T17:31:07.622Z,11.60
2019-03-02T17:34:03.911Z,11.60
2019-03-02T17:36:47.017Z,11.50
2019-03-02T17:39:37.901Z,11.30
2019-03-02T17:42:44.751Z,11.30
2019-03-02T17:45:52.672Z,11.30
2019-03-02T17:48:42.130Z,11.20
2019-03-02T17:51:25.303Z,11.20
2019-03-02T17:54:13.847Z,11.20
2019-03-02T17:57:17.668Z,11.10
2019-03-02T18:00:09.541Z,11.00
2019-03-02T18:02:58.946Z,11.00
2019-03-02T18:05:57.791Z,11.00
2019-03-02T18:08:56.412Z,11.00
2019-03-02T18:11:50.344Z,11.10
2019-03-02T18:14:41.053Z,10.90
2019-03-02T18:17:24.604Z,11.00
2019-03-02T18:19:55.122Z,11.00
2019-03-02T18:22:25.984Z,11.10
2019-03-02T18:24:56.454Z,11.20
2019-03-02T18:27:26.943Z,11.20
2019-03-02T18:29:57.700Z,11.00
2019-03-02T18:32:30.095Z,11.00
2019-03-02T18:35:02.700Z,10.90
2019-03-02T18:37:33.590Z,10.80
2019-03-02T18:40:04.606Z,10.90
2019-03-02T18:42:35.221Z,11.00
2019-03-02T18:45:06.846Z,10.90
2019-03-02T18:47:37.562Z,11.10
2019-03-02T18:50:32.436Z,11.00
2019-03-02T18:53:06.198Z,11.00
2019-03-02T18:55:37.430Z,11.00
2019-03-02T18:58:09.698Z,11.00
2019-03-02T19:00:44.722Z,11.10
2019-03-02T19:03:15.412Z,11.00
2019-03-02T19:05:50.101Z,11.00
2019-03-02T19:08:18.739Z,11.00
2019-03-02T19:10:49.667Z,11.10
2019-03-02T19:13:20.473Z,11.10
2019-03-02T19:15:53.941Z,11.00
2019-03-02T19:18:23.447Z,11.00
2019-03-02T19:20:54.649Z,10.80
2019-03-02T19:23:25.665Z,10.80
2019-03-02T19:25:56.321Z,10.70
2019-03-02T19:28:27.257Z,10.70
2019-03-02T19:30:57.884Z,10.60
2019-03-02T19:33:28.411Z,10.60
2019-03-02T19:35:58.996Z,10.70
2019-03-02T19:38:29.543Z,10.60
2019-03-02T19:41:00.251Z,10.60
2019-03-02T19:43:30.979Z,10.50
2019-03-02T19:46:02.608Z,10.50
2019-03-02T19:48:33.263Z,10.50
2019-03-02T19:51:03.708Z,10.50
2019-03-02T19:53:34.151Z,10.60
2019-03-02T19:56:04.788Z,10.70
2019-03-02T19:58:35.291Z,10.70
2019-03-02T20:01:08.476Z,10.70
2019-03-02T20:03:39.340Z,10.60
2019-03-02T20:06:09.869Z,10.70
2019-03-02T20:08:40.742Z,10.60
2019-03-02T20:11:11.399Z,10.50
2019-03-02T20:13:42.345Z,10.50
2019-03-02T20:16:13.492Z,10.60
2019-03-02T20:18:44.153Z,10.70
2019-03-02T20:21:14.645Z,10.60
2019-03-02T20:23:45.201Z,10.60
2019-03-02T20:26:16.033Z,10.60
2019-03-02T20:28:46.547Z,10.70
2019-03-02T20:31:17.183Z,10.70
2019-03-02T20:33:48.212Z,10.70
2019-03-02T20:36:19.138Z,10.70
2019-03-02T20:38:49.809Z,10.80
2019-03-02T20:41:20.297Z,10.80
2019-03-02T20:43:50.829Z,10.80
2019-03-02T20:46:21.382Z,10.80
2019-03-02T20:48:51.827Z,10.90
2019-03-02T20:51:22.491Z,10.90
2019-03-02T20:53:52.964Z,11.00
2019-03-02T20:56:23.476Z,11.00
2019-03-02T20:58:54.328Z,11.00
2019-03-02T21:01:26.888Z,11.10
2019-03-02T21:03:57.610Z,11.20
2019-03-02T21:06:28.126Z,11.20
2019-03-02T21:08:58.599Z,11.30
2019-03-02T21:11:29.741Z,11.30
2019-03-02T21:14:00.221Z,11.40
2019-03-02T21:16:30.788Z,11.40
2019-03-02T21:19:01.339Z,11.40
2019-03-02T21:21:31.866Z,11.40
2019-03-02T21:24:02.599Z,11.40
2019-03-02T21:26:33.083Z,11.40
2019-03-02T21:29:03.528Z,11.40
2019-03-02T21:31:34.177Z,11.20
2019-03-02T21:34:04.941Z,11.20
2019-03-02T21:36:38.312Z,11.20
2019-03-02T21:39:09.237Z,11.00
2019-03-02T21:41:40.002Z,11.00
2019-03-02T21:44:10.606Z,11.00
2019-03-02T21:46:41.352Z,11.00
2019-03-02T21:49:11.859Z,11.00
2019-03-02T21:51:42.827Z,11.10
2019-03-02T21:54:13.580Z,11.00
2019-03-02T21:56:44.085Z,11.00
2019-03-02T21:59:14.821Z,11.00
2019-03-02T22:01:46.098Z,11.00
2019-03-02T22:04:16.644Z,11.00
2019-03-02T22:06:47.193Z,11.00
2019-03-02T22:09:17.715Z,11.10
2019-03-02T22:11:48.440Z,11.10
2019-03-02T22:14:19.363Z,11.10
2019-03-02T22:16:50.227Z,11.10
2019-03-02T22:19:20.676Z,11.10
2019-03-02T22:21:51.799Z,11.00
2019-03-02T22:24:22.496Z,11.00
2019-03-02T22:26:53.173Z,11.00
2019-03-02T22:29:23.720Z,11.00
2019-03-02T22:31:56.121Z,11.00
2019-03-02T22:34:26.899Z,11.00
2019-03-02T22:36:57.783Z,11.00
2019-03-02T22:39:28.362Z,11.00
2019-03-02T22:41:58.856Z,11.00
2019-03-02T22:44:29.403Z,11.00
2019-03-02T22:46:59.840Z,11.00
2019-03-02T22:49:30.300Z,10.80
2019-03-02T22:52:00.780Z,10.80
2019-03-02T22:54:31.342Z,10.70
2019-03-02T22:57:02.248Z,10.60
2019-03-02T22:59:32.791Z,10.60
2019-03-02T23:02:19.833Z,10.40
2019-03-02T23:04:50.550Z,10.40
2019-03-02T23:07:21.118Z,10.40
2019-03-02T23:09:51.630Z,10.40
2019-03-02T23:12:22.429Z,10.40
2019-03-02T23:14:53.081Z,10.30
2019-03-02T23:17:23.593Z,10.30
2019-03-02T23:19:54.060Z,10.30
2019-03-02T23:22:26.753Z,10.20
2019-03-02T23:24:57.299Z,10.30
2019-03-02T23:27:27.859Z,10.20
2019-03-02T23:29:58.556Z,10.10
2019-03-02T23:32:29.242Z,10.10
2019-03-02T23:34:59.785Z,10.00
2019-03-02T23:37:30.301Z,10.00
2019-03-02T23:40:00.903Z,9.90
2019-03-02T23:42:31.494Z,9.80
2019-03-02T23:45:02.110Z,9.70
2019-03-02T23:47:34.612Z,9.70
2019-03-02T23:50:05.350Z,9.60
2019-03-02T23:52:35.845Z,9.50
2019-03-02T23:55:06.571Z,9.50
2019-03-02T23:57:37.097Z,9.40
